Stanley, NY

11:54 AM EST on December 18, 2014 (GMT -0500)
J MInns Farm | Change Station
CLOSE
Current Station
Personal Weather Station
Location: Stanley, NY
Elevation: 833 ft
Nearby Weather Stations

Elev 833 ft 42.87 °N, 77.09 °W | Updated 4 minutes ago

Overcast
Overcast
30.5 °F
Feels Like 22 °F
N
9.0
Wind Variable Wind from WNW
Gusts 9.0 mph

Today
High -- | Low -- °F
--% Chance of Precip.
Yesterday
High -- | Low -- °F
Precip. -- in
7:34 AM 4:35 PM
Waning Crescent, 13% visible
Pressure 30.06 in
Visibility 10.0 miles
Clouds Overcast 1300 ft
Windchill 22 °F
Dew Point 28 °F
Humidity 89%
Rainfall 0.00 in
Snow Depth Not available.
UV 1 out of 12
Pollen .10 out of 12
Air Quality Not available.
Flu Activity Not available.
METAR KPEO 181553Z AUTO 28009KT 10SM OVC013 00/M03 A3003 RMK AO2 SLP180 T00001033

More Conditions Fewer Conditions

Pressure 30.06 in
Visibility 10.0 miles
Clouds Overcast 1300 ft
Windchill 22 °F
Dew Point 28 °F
Humidity 89%
Rainfall 0.00 in
Snow Depth Not available.
UV 1 out of 12
Pollen .10 out of 12
Air Quality Not available.
Flu Activity Not available.
METAR KPEO 181553Z AUTO 28009KT 10SM OVC013 00/M03 A3003 RMK AO2 SLP180 T00001033

More Conditions Fewer Conditions

10-Day Weather Forecast

Almanac

Astronomy

Dec. 18, 2014 Rise Set
Actual Time
Civil Twilight
Nautical Twilight
Astronomical Twilight
Moon
Length of Visible Light
Length of Day
Tomorrow will be .
, % of the Moon is Illuminated

Today's Extremes

State Highs State Lows

Community

WunderPhotos

Upload Photos

1,778,960 photos uploaded!

WunderBlogs® & News

Nearby

Air Quality

  Air Quality AQ Index Pollutant
Not available.

Snow Depth

Station Depth Elevation

Earthquake Activity

City Distance Mag. Time & Date
Minimum magnitude displayed is 2.5.

Coastal Water Temperatures

Place Temperature

Nearby Weather Stations